Time;durP1;ratioP1;P1;durP2;ratioP2;P2;SDS_P1;SDS_P2;PMS_P1;PMS_P2;Temp;Humidity;BMP_temperature;BMP_pressure;BME280_temperature;BME280_humidity;BME280_pressure;Samples;Min_cycle;Max_cycle;Signal;HPM_P1;HPM_P2
2022/10/25 00:01:30;;;;;;;23.05;10.65;;;;;;;22.16;58.23;101386.19;4905376;29;20055;-82
2022/10/25 00:04:00;;;;;;;23.08;10.25;;;;;;;21.92;58.23;101355.81;4905096;28;20055;-82
2022/10/25 00:06:27;;;;;;;27.42;9.90;;;;;;;22.08;58.29;101389.88;4924530;29;20043;-83
2022/10/25 00:08:56;;;;;;;21.75;10.13;;;;;;;21.84;58.50;101349.69;4922962;29;20085;-82
2022/10/25 00:11:28;;;;;;;29.48;10.18;;;;;;;22.05;58.57;101367.78;4907920;29;20238;-79
2022/10/25 00:13:57;;;;;;;23.00;10.18;;;;;;;21.69;58.25;101311.94;4906861;29;20501;-81
2022/10/25 00:16:31;;;;;;;28.13;12.65;;;;;;;21.89;58.40;101358.06;4905396;29;20069;-80
2022/10/25 00:18:58;;;;;;;24.65;10.43;;;;;;;21.58;59.19;101320.53;4906577;29;20230;-82
2022/10/25 00:21:27;;;;;;;29.20;10.45;;;;;;;21.85;59.06;101371.16;4905585;29;20055;-83
2022/10/25 00:23:54;;;;;;;28.83;10.68;;;;;;;20.47;59.86;101147.91;4923130;28;20051;-83
2022/10/25 00:26:21;;;;;;;25.65;9.90;;;;;;;21.84;59.69;101372.16;4903457;29;20473;-82
2022/10/25 00:28:48;;;;;;;19.77;10.70;;;;;;;21.87;59.16;101360.97;4940449;28;20051;-82
2022/10/25 00:31:16;;;;;;;33.00;10.05;;;;;;;21.77;59.55;101357.72;4941075;28;20915;-82
2022/10/25 00:33:43;;;;;;;24.52;10.63;;;;;;;21.72;59.88;101368.28;4941627;28;20046;-82
2022/10/25 00:36:16;;;;;;;25.60;10.77;;;;;;;21.51;59.97;101342.91;4942934;28;20145;-82
2022/10/25 00:38:44;;;;;;;17.88;10.18;;;;;;;21.32;60.12;101325.41;4925171;28;20050;-82
2022/10/25 00:41:14;;;;;;;28.58;9.48;;;;;;;20.81;59.95;101236.34;4942166;28;20047;-84
2022/10/25 00:43:48;;;;;;;26.70;11.48;;;;;;;21.67;60.27;101381.53;4940364;28;20157;-83
2022/10/25 00:46:17;;;;;;;22.58;10.18;;;;;;;21.72;59.83;101376.38;4924609;28;20206;-82
2022/10/25 00:48:55;;;;;;;22.13;10.48;;;;;;;21.49;60.29;101347.66;4921999;28;20054;-84
2022/10/25 00:51:28;;;;;;;21.58;8.98;;;;;;;21.28;59.67;101312.47;4939437;28;20210;-84
2022/10/25 00:53:55;;;;;;;23.95;10.18;;;;;;;21.63;58.69;101340.56;4923333;28;20470;-83
2022/10/25 00:56:28;;;;;;;28.42;9.60;;;;;;;21.45;58.39;101292.34;4924444;28;20653;-84
2022/10/25 00:58:59;;;;;;;25.20;9.13;;;;;;;21.96;57.57;101335.47;4941076;28;20423;-82
2022/10/25 01:01:27;;;;;;;25.17;9.00;;;;;;;21.97;57.15;101302.03;4923424;28;20410;-84
2022/10/25 01:03:56;;;;;;;24.98;9.80;;;;;;;21.62;56.83;101240.78;4925300;28;20059;-83
2022/10/25 01:06:30;;;;;;;22.92;8.98;;;;;;;22.07;56.52;101295.44;4924305;28;20129;-83
2022/10/25 01:08:58;;;;;;;26.42;9.80;;;;;;;22.23;56.65;101315.97;4941035;28;20073;-83
2022/10/25 01:11:25;;;;;;;26.80;8.43;;;;;;;22.18;56.39;101303.00;4941248;28;20141;-84
2022/10/25 01:13:52;;;;;;;26.02;9.13;;;;;;;21.95;55.83;101232.97;4941005;28;20054;-85
2022/10/25 01:16:36;;;;;;;23.95;10.75;;;;;;;21.11;55.86;101095.91;4926387;28;20154;-85
2022/10/25 01:19:35;;;;;;;30.85;9.38;;;;;;;22.35;55.63;101304.41;4924983;28;20149;-84
2022/10/25 01:22:19;;;;;;;20.13;8.75;;;;;;;22.58;55.23;101312.28;4925160;28;20081;-83
2022/10/25 01:25:01;;;;;;;16.17;9.02;;;;;;;22.64;55.11;101313.34;4925520;28;20595;-84
2022/10/25 01:27:42;;;;;;;22.23;9.43;;;;;;;22.58;55.28;101308.75;4939517;28;20637;-81
2022/10/25 01:30:23;;;;;;;29.27;9.35;;;;;;;22.19;55.17;101243.31;4924400;28;20621;-85
2022/10/25 01:33:11;;;;;;;24.90;8.93;;;;;;;22.81;54.94;101303.88;4941378;28;20507;-83
2022/10/25 01:35:51;;;;;;;19.65;8.75;;;;;;;22.37;54.78;101237.44;4940609;28;20050;-84
2022/10/25 01:38:34;;;;;;;31.25;9.10;;;;;;;22.72;54.51;101304.22;4940810;28;20053;-82
2022/10/25 01:41:03;;;;;;;23.83;8.43;;;;;;;22.51;54.58;101267.28;4939700;28;20507;-81
2022/10/25 01:44:02;;;;;;;24.48;8.57;;;;;;;22.88;54.26;101303.06;4939186;28;20070;-82
2022/10/25 01:46:52;;;;;;;23.10;8.68;;;;;;;22.68;54.11;101276.75;4920597;28;20138;-83
2022/10/25 01:49:30;;;;;;;24.80;8.43;;;;;;;22.75;54.52;101288.44;4928221;28;20082;-82
2022/10/25 01:51:57;;;;;;;24.23;9.15;;;;;;;22.82;54.00;101296.59;4903477;29;20551;-79
2022/10/25 01:54:26;;;;;;;28.88;8.77;;;;;;;22.86;54.00;101295.16;4903789;29;20051;-83
2022/10/25 01:57:14;;;;;;;20.77;8.70;;;;;;;22.53;53.76;101263.34;4907584;28;20133;-83
2022/10/25 02:00:19;;;;;;;20.42;9.73;;;;;;;22.39;54.02;101224.56;4941121;28;20054;-82
2022/10/25 02:02:49;;;;;;;23.58;8.50;;;;;;;22.68;54.48;101286.75;4938298;28;20053;-82
2022/10/25 02:05:47;;;;;;;26.33;9.23;;;;;;;22.65;54.62;101298.81;4941146;28;20046;-82
2022/10/25 02:08:35;;;;;;;24.13;8.30;;;;;;;22.44;54.79;101274.53;4945206;28;20459;-81
2022/10/25 02:11:05;;;;;;;26.27;8.20;;;;;;;22.50;54.87;101300.75;4941788;28;20467;-82
2022/10/25 02:14:00;;;;;;;33.42;8.68;;;;;;;22.48;55.16;101298.28;4942950;28;20047;-83
2022/10/25 02:16:38;;;;;;;32.40;9.73;;;;;;;21.72;55.17;101171.88;4941027;28;20475;-83
2022/10/25 02:19:13;;;;;;;28.50;9.73;;;;;;;22.64;54.91;101289.00;4943489;28;20055;-82
2022/10/25 02:21:44;;;;;;;20.73;8.90;;;;;;;22.35;54.94;101261.13;4942034;28;20124;-82
2022/10/25 02:24:19;;;;;;;25.83;10.18;;;;;;;22.01;54.97;101198.91;4941840;28;20361;-81
2022/10/25 02:26:48;;;;;;;28.60;9.95;;;;;;;22.47;55.05;101287.66;4944009;28;20839;-82
2022/10/25 02:29:17;;;;;;;19.05;9.05;;;;;;;22.29;55.11;101259.25;4962714;28;20089;-81
2022/10/25 02:31:49;;;;;;;28.50;9.52;;;;;;;22.48;55.08;101281.22;4943618;28;20830;-82
2022/10/25 02:34:17;;;;;;;31.60;9.05;;;;;;;22.60;54.82;101301.28;4944440;28;20053;-82
2022/10/25 02:36:49;;;;;;;22.08;9.68;;;;;;;22.49;54.80;101277.47;4959429;28;20408;-81
2022/10/25 02:39:20;;;;;;;29.40;9.23;;;;;;;22.49;55.16;101293.69;4944253;28;20125;-83
2022/10/25 02:41:47;;;;;;;27.35;9.38;;;;;;;22.53;55.09;101289.56;4958971;28;20065;-80
2022/10/25 02:44:13;;;;;;;26.48;8.57;;;;;;;22.34;54.95;101248.66;4942089;28;20061;-83
2022/10/25 02:46:40;;;;;;;33.55;9.77;;;;;;;22.50;54.85;101268.31;4943226;28;20054;-82
2022/10/25 02:49:10;;;;;;;21.45;8.95;;;;;;;22.54;54.73;101280.41;4946365;28;20149;-82
2022/10/25 02:51:41;;;;;;;24.27;9.18;;;;;;;22.61;54.61;101294.81;4954356;28;20050;-82
2022/10/25 02:54:08;;;;;;;26.88;8.85;;;;;;;22.48;54.62;101275.81;4945402;28;20756;-82
2022/10/25 02:56:35;;;;;;;35.78;9.82;;;;;;;22.13;55.08;101237.88;4963911;28;20447;-81
2022/10/25 02:59:04;;;;;;;20.70;8.88;;;;;;;22.07;54.95;101219.75;4945206;28;20077;-83
2022/10/25 03:01:33;;;;;;;30.92;9.18;;;;;;;22.45;55.25;101282.41;4943220;28;20553;-81
2022/10/25 03:04:00;;;;;;;20.98;8.02;;;;;;;21.70;55.02;101159.56;4959610;28;20486;-81
2022/10/25 03:06:29;;;;;;;25.58;9.25;;;;;;;22.39;55.04;101286.75;4961511;28;20073;-83
2022/10/25 03:08:56;;;;;;;32.97;9.25;;;;;;;22.28;55.41;101291.88;4963232;28;20319;-83
2022/10/25 03:11:26;;;;;;;30.05;9.13;;;;;;;22.35;55.03;101295.47;4944718;28;20061;-82
2022/10/25 03:13:56;;;;;;;19.70;9.13;;;;;;;22.30;55.59;101290.66;4958012;28;20411;-83
2022/10/25 03:16:23;;;;;;;24.00;8.73;;;;;;;22.27;55.89;101285.63;4945868;28;20061;-81
2022/10/25 03:18:50;;;;;;;23.05;8.60;;;;;;;22.29;55.63;101283.56;4943049;28;20494;-81
2022/10/25 03:21:17;;;;;;;35.88;9.40;;;;;;;22.12;56.11;101268.66;4960376;28;20161;-81
2022/10/25 03:23:44;;;;;;;22.90;8.60;;;;;;;22.04;55.96;101250.72;4944974;28;20794;-82
2022/10/25 03:26:15;;;;;;;25.35;8.90;;;;;;;22.29;55.82;101288.16;4943594;28;20576;-82
2022/10/25 03:28:44;;;;;;;18.27;8.98;;;;;;;22.25;55.94;101303.09;4960661;28;20057;-83
2022/10/25 03:31:12;;;;;;;30.17;8.65;;;;;;;22.22;56.01;101293.50;4943947;28;20061;-82
2022/10/25 03:33:39;;;;;;;27.92;8.75;;;;;;;21.93;55.91;101254.78;4945115;28;20055;-82
2022/10/25 03:36:08;;;;;;;24.17;9.18;;;;;;;22.18;55.64;101305.72;4959997;28;20069;-82
2022/10/25 03:38:35;;;;;;;20.75;9.43;;;;;;;22.03;56.23;101286.03;4946326;28;20050;-83
2022/10/25 03:41:04;;;;;;;26.63;8.98;;;;;;;22.05;56.16;101281.28;4942628;28;20540;-83
2022/10/25 03:43:33;;;;;;;26.45;9.55;;;;;;;22.08;55.93;101270.06;4940747;28;20689;-83
2022/10/25 03:46:14;;;;;;;35.13;9.10;;;;;;;22.09;55.52;101261.78;4942473;28;20046;-80
2022/10/25 03:48:42;;;;;;;20.92;8.52;;;;;;;22.00;56.03;101268.34;4940594;28;20050;-82
2022/10/25 03:51:08;;;;;;;28.30;8.93;;;;;;;21.83;55.73;101232.66;4959043;28;20051;-81
2022/10/25 03:53:35;;;;;;;24.75;9.50;;;;;;;21.84;56.19;101244.28;4941042;28;20050;-82
2022/10/25 03:56:19;;;;;;;21.77;9.43;;;;;;;22.12;56.20;101303.81;4954331;28;20536;-80
2022/10/25 03:59:00;;;;;;;18.17;8.55;;;;;;;22.05;56.40;101313.72;4977364;28;20066;-82
2022/10/25 04:01:30;;;;;;;21.40;8.75;;;;;;;21.07;56.85;101160.25;4960727;28;20046;-82
2022/10/25 04:04:08;;;;;;;23.38;8.88;;;;;;;21.77;56.63;101273.97;4993300;28;20117;-82
2022/10/25 04:07:22;;;;;;;27.00;8.98;;;;;;;21.49;56.94;101250.44;4995933;28;20109;-81
2022/10/25 04:10:04;;;;;;;25.27;8.85;;;;;;;20.97;57.03;101178.63;4957055;28;20058;-79
2022/10/25 04:12:52;;;;;;;34.80;9.18;;;;;;;20.92;57.38;101172.94;4983853;28;20077;-80
2022/10/25 04:15:38;;;;;;;21.73;9.02;;;;;;;21.72;57.94;101315.09;5008128;28;20047;-84
2022/10/25 04:18:39;;;;;;;17.38;8.45;;;;;;;21.71;58.97;101331.50;5008042;28;20406;-79
2022/10/25 04:21:40;;;;;;;24.60;10.18;;;;;;;21.64;59.26;101338.69;4989216;28;20051;-77
2022/10/25 04:24:38;;;;;;;24.98;8.98;;;;;;;19.84;58.62;101066.63;4901017;29;20099;-82
2022/10/25 04:27:31;;;;;;;22.63;9.07;;;;;;;20.85;59.26;101220.59;4929302;29;20047;-81
2022/10/25 04:30:39;;;;;;;20.70;7.95;;;;;;;21.54;58.92;101345.22;4902338;29;20119;-80
2022/10/25 04:36:35;;;;;;;31.02;9.45;;;;;;;20.16;59.62;101130.06;4917241;29;20160;-81
2022/10/25 04:39:29;;;;;;;16.88;8.85;;;;;;;21.48;59.47;101346.00;4915231;29;20052;-82
2022/10/25 04:42:05;;;;;;;27.55;9.80;;;;;;;21.49;59.24;101344.97;4916786;29;20154;-78
2022/10/25 04:44:39;;;;;;;22.25;9.20;;;;;;;21.47;59.33;101357.81;4914779;29;20056;-78
2022/10/25 04:47:30;;;;;;;28.45;9.77;;;;;;;21.48;59.74;101353.25;4909773;29;20457;-80
2022/10/25 04:50:04;;;;;;;21.95;8.70;;;;;;;20.96;60.12;101282.19;4914093;29;20052;-78
2022/10/25 04:52:52;;;;;;;34.80;9.68;;;;;;;21.23;59.74;101326.56;4903809;29;20047;-77
2022/10/25 04:56:02;;;;;;;31.17;10.30;;;;;;;21.38;60.22;101361.63;4928348;29;20071;-79
2022/10/25 04:58:37;;;;;;;26.27;9.30;;;;;;;21.32;60.90;101374.03;4911718;29;20138;-78
2022/10/25 05:01:26;;;;;;;28.95;9.80;;;;;;;21.31;60.23;101369.66;4956060;28;20051;-78
2022/10/25 05:04:01;;;;;;;24.13;10.00;;;;;;;21.28;60.83;101361.91;4983670;28;20050;-80
2022/10/25 05:06:31;;;;;;;29.13;12.07;;;;;;;21.25;60.74;101359.59;4968993;28;20050;-78
2022/10/25 05:09:07;;;;;;;26.50;9.73;;;;;;;20.96;61.04;101306.47;4952949;28;20062;-78
2022/10/25 05:11:42;;;;;;;29.30;10.25;;;;;;;20.22;61.04;101199.44;4964792;28;20089;-77
2022/10/25 05:14:27;;;;;;;27.35;10.13;;;;;;;20.48;61.29;101252.03;4962832;28;20058;-80
2022/10/25 05:17:08;;;;;;;22.15;9.05;;;;;;;21.11;61.44;101365.84;4918147;28;20376;-81
2022/10/25 05:19:50;;;;;;;29.42;9.55;;;;;;;21.08;61.01;101364.38;4939993;28;20059;-79
2022/10/25 05:22:39;;;;;;;21.92;8.98;;;;;;;19.74;61.25;101160.34;4972131;28;20050;-79
2022/10/25 05:25:25;;;;;;;21.60;9.45;;;;;;;20.05;61.44;101208.72;4942977;28;20078;-79
2022/10/25 05:28:13;;;;;;;25.55;9.02;;;;;;;20.97;61.72;101364.84;4963293;28;20098;-81
2022/10/25 05:30:50;;;;;;;34.83;10.07;;;;;;;20.94;61.03;101375.16;4973852;28;20051;-79
2022/10/25 05:33:28;;;;;;;26.48;9.45;;;;;;;21.00;60.75;101377.13;4946268;28;20279;-77
2022/10/25 05:36:13;;;;;;;32.70;10.02;;;;;;;20.96;61.42;101392.03;4963505;28;20058;-79
2022/10/25 05:39:07;;;;;;;25.13;9.70;;;;;;;20.35;61.35;101305.78;4947383;28;20058;-81
2022/10/25 05:41:49;;;;;;;34.75;9.95;;;;;;;20.93;61.28;101390.53;4961783;28;20043;-81
2022/10/25 05:44:39;;;;;;;25.48;9.93;;;;;;;19.56;61.84;101201.03;4959795;28;20534;-77
2022/10/25 05:47:15;;;;;;;19.95;8.98;;;;;;;19.95;61.54;101251.22;4956765;28;20210;-76
2022/10/25 05:49:53;;;;;;;25.67;8.80;;;;;;;19.93;60.18;101253.25;4949327;28;20054;-81
2022/10/25 05:52:47;;;;;;;24.42;8.80;;;;;;;19.97;58.48;101249.19;4952213;28;20065;-78
2022/10/25 05:55:22;;;;;;;29.33;10.40;;;;;;;20.47;57.89;101332.13;4965446;28;20125;-78
2022/10/25 05:57:58;;;;;;;32.58;10.75;;;;;;;20.94;58.27;101440.78;4966669;28;20201;-80
2022/10/25 06:00:38;;;;;;;39.63;12.18;;;;;;;20.83;58.34;101422.34;4957125;28;20509;-81
2022/10/25 06:03:38;;;;;;;16.73;10.23;;;;;;;20.70;58.77;101429.22;4974966;28;20276;-80
2022/10/25 06:06:27;;;;;;;;;;;;;;;20.53;59.19;101426.81;4966700;28;20054;-80
2022/10/25 06:09:29;;;;;;;33.33;12.50;;;;;;;20.59;59.06;101450.41;4967769;28;19922;-78
2022/10/25 06:12:06;;;;;;;39.70;13.80;;;;;;;20.03;59.01;101375.16;4966535;28;20046;-79
2022/10/25 06:14:51;;;;;;;29.35;12.95;;;;;;;18.92;59.48;101237.09;4981208;28;20081;-80
2022/10/25 06:17:38;;;;;;;29.50;13.43;;;;;;;20.35;59.94;101489.16;4957587;28;20078;-80
2022/10/25 06:20:19;;;;;;;33.25;14.00;;;;;;;18.95;60.27;101277.09;4939286;28;20366;-81
2022/10/25 06:23:35;;;;;;;35.53;14.75;;;;;;;19.97;60.76;101454.00;4955213;28;20085;-77
2022/10/25 06:26:32;;;;;;;26.13;14.88;;;;;;;19.46;60.82;101384.38;4937865;28;20502;-81
2022/10/25 06:29:31;;;;;;;43.92;16.77;;;;;;;20.00;61.46;101494.06;4959159;28;20699;-79
2022/10/25 06:32:12;;;;;;;38.10;16.38;;;;;;;18.72;61.26;101260.88;4946824;28;20058;-78
2022/10/25 06:35:11;;;;;;;37.85;18.05;;;;;;;19.96;61.56;101492.75;4969370;28;20453;-79
2022/10/25 06:38:02;;;;;;;38.63;18.88;;;;;;;19.87;61.68;101480.34;4939932;28;20090;-80
2022/10/25 06:41:06;;;;;;;35.17;18.30;;;;;;;19.91;61.88;101492.44;4958292;28;20085;-79
2022/10/25 06:43:38;;;;;;;47.40;17.63;;;;;;;19.03;61.42;101353.44;4971709;28;20065;-82
2022/10/25 06:46:30;;;;;;;37.90;17.23;;;;;;;19.03;62.12;101365.06;4958499;28;20050;-78
2022/10/25 06:49:08;;;;;;;39.08;18.10;;;;;;;19.29;62.45;101428.53;4962187;28;20142;-84
2022/10/25 06:51:43;;;;;;;37.40;18.17;;;;;;;19.83;62.54;101520.25;4915117;29;20343;-82
2022/10/25 06:54:14;;;;;;;46.42;18.55;;;;;;;19.62;62.10;101489.34;4940721;28;20050;-81
2022/10/25 06:56:43;;;;;;;36.60;20.10;;;;;;;19.57;62.44;101482.81;4953777;28;20094;-79
2022/10/25 06:59:18;;;;;;;31.85;19.40;;;;;;;19.44;63.19;101480.63;4950618;28;20287;-81
2022/10/25 07:01:48;;;;;;;38.58;20.80;;;;;;;19.54;63.00;101508.22;4950143;28;20345;-79
2022/10/25 07:04:19;;;;;;;45.20;21.85;;;;;;;19.17;63.13;101430.75;4930191;28;20067;-81
2022/10/25 07:06:49;;;;;;;48.75;22.73;;;;;;;19.87;62.87;101529.66;4951701;28;20050;-80
2022/10/25 07:09:21;;;;;;;51.22;25.50;;;;;;;19.92;63.59;101542.63;4937463;28;20047;-78
2022/10/25 07:11:47;;;;;;;54.45;26.27;;;;;;;19.96;63.36;101534.00;4941429;28;20051;-80
2022/10/25 07:14:15;;;;;;;64.20;27.08;;;;;;;19.59;64.29;101491.53;4936296;28;20106;-79
2022/10/25 07:16:44;;;;;;;44.88;25.65;;;;;;;19.66;64.65;101506.00;4945859;28;20039;-80
2022/10/25 07:19:19;;;;;;;47.58;27.63;;;;;;;19.93;64.78;101549.69;4950358;28;20134;-80
2022/10/25 07:21:48;;;;;;;43.60;27.80;;;;;;;19.97;65.18;101546.47;4932010;28;20415;-80
2022/10/25 07:24:19;;;;;;;69.07;28.88;;;;;;;19.93;65.00;101536.19;4939442;28;20137;-79
2022/10/25 07:26:52;;;;;;;61.63;29.38;;;;;;;19.87;64.91;101520.75;4972218;28;20051;-78
2022/10/25 07:29:23;;;;;;;54.45;31.00;;;;;;;20.04;65.25;101560.09;4936822;28;20053;-82
2022/10/25 07:31:57;;;;;;;58.47;30.55;;;;;;;19.06;65.51;101393.47;4974610;28;20684;-79
2022/10/25 07:34:33;;;;;;;57.42;29.85;;;;;;;20.23;65.12;101567.75;4938648;28;20059;-82
2022/10/25 07:37:02;;;;;;;61.70;29.30;;;;;;;20.18;65.88;101569.28;4958396;28;20149;-79
2022/10/25 07:39:33;;;;;;;56.33;31.80;;;;;;;18.77;66.08;101354.53;4945599;28;20097;-81
2022/10/25 07:42:01;;;;;;;64.80;30.33;;;;;;;20.21;66.05;101580.56;4935762;28;20050;-79
2022/10/25 07:44:31;;;;;;;57.95;33.90;;;;;;;20.20;66.29;101589.66;4944123;28;20058;-79
2022/10/25 07:46:59;;;;;;;64.65;31.88;;;;;;;20.20;65.81;101592.38;4937338;28;20109;-80
2022/10/25 07:49:38;;;;;;;60.63;33.30;;;;;;;20.15;66.61;101594.75;4944586;28;20417;-80
2022/10/25 07:52:06;;;;;;;67.93;34.10;;;;;;;19.63;66.51;101511.72;4961546;28;20050;-81
2022/10/25 07:54:48;;;;;;;60.35;34.75;;;;;;;20.10;66.21;101586.34;4946498;28;20062;-79
2022/10/25 07:57:15;;;;;;;62.45;34.40;;;;;;;20.15;66.25;101602.00;4938425;28;20557;-80
2022/10/25 07:59:57;;;;;;;57.15;33.92;;;;;;;20.02;66.42;101584.50;4946189;28;20043;-80
2022/10/25 08:02:27;;;;;;;64.40;32.53;;;;;;;19.84;66.41;101563.19;4943386;28;20071;-78
2022/10/25 08:04:56;;;;;;;68.83;33.03;;;;;;;20.14;66.49;101614.63;4959920;28;20069;-77
2022/10/25 08:07:37;;;;;;;;;;;;;;;;;;;;;
2022/10/25 08:10:07;;;;;;;60.80;30.77;;;;;;;18.52;66.49;101368.00;4983224;28;20065;-81
2022/10/25 08:12:41;;;;;;;61.38;33.08;;;;;;;18.73;66.58;101407.78;4991595;28;20754;-78
2022/10/25 08:15:19;;;;;;;69.78;34.35;;;;;;;19.10;66.97;101467.44;4998723;28;20074;-78
2022/10/25 08:17:51;;;;;;;58.40;33.72;;;;;;;19.42;66.57;101504.22;5000867;28;20081;-78
2022/10/25 08:20:20;;;;;;;68.10;31.58;;;;;;;19.85;66.52;101586.44;5003335;28;20046;-79
2022/10/25 08:23:13;;;;;;;62.60;32.85;;;;;;;19.63;66.31;101538.66;4998140;28;20049;-78
2022/10/25 08:25:41;;;;;;;52.88;29.65;;;;;;;19.99;66.22;101579.47;5001911;28;20085;-78
2022/10/25 08:28:19;;;;;;;62.78;32.00;;;;;;;20.25;66.18;101603.47;5001845;28;20108;-76
2022/10/25 08:30:48;;;;;;;52.85;32.50;;;;;;;20.33;66.35;101617.91;5002665;28;20080;-78
2022/10/25 08:33:17;;;;;;;61.95;31.42;;;;;;;20.38;65.89;101612.84;5003189;28;20066;-80
2022/10/25 08:36:09;;;;;;;62.30;30.83;;;;;;;20.23;65.67;101565.03;4999118;28;20164;-77
2022/10/25 08:38:45;;;;;;;60.55;30.95;;;;;;;20.36;65.12;101571.72;4999444;28;20073;-79
2022/10/25 08:41:54;;;;;;;68.50;32.63;;;;;;;20.72;65.18;101608.97;4997760;28;20490;-79
2022/10/25 08:48:21;;;;;;;54.05;29.45;;;;;;;19.84;63.91;101482.38;4976926;28;20046;-78
2022/10/25 08:51:04;;;;;;;50.03;30.10;;;;;;;20.15;64.15;101543.53;4985334;28;20196;-81
2022/10/25 08:53:39;;;;;;;50.80;27.38;;;;;;;20.48;63.82;101595.41;4977595;28;20522;-80
2022/10/25 08:56:13;;;;;;;58.40;27.13;;;;;;;20.85;63.35;101642.44;4975901;28;20492;-80
2022/10/25 08:59:03;;;;;;;51.95;27.65;;;;;;;20.76;63.89;101643.50;4959723;28;20084;-81
2022/10/25 09:01:46;;;;;;;55.45;27.60;;;;;;;20.18;64.19;101556.66;4958820;28;20113;-79
2022/10/25 09:04:14;;;;;;;46.75;24.23;;;;;;;20.49;64.25;101601.66;4973521;28;20065;-77
2022/10/25 09:07:18;;;;;;;46.08;25.92;;;;;;;19.65;63.61;101435.09;4976142;28;20058;-80
2022/10/25 09:09:59;;;;;;;41.15;23.40;;;;;;;20.35;63.35;101537.69;4959051;28;20066;-80
2022/10/25 09:12:45;;;;;;;45.47;24.45;;;;;;;20.96;63.38;101633.06;4960298;28;20164;-80
2022/10/25 09:15:44;;;;;;;40.92;24.13;;;;;;;20.62;62.92;101558.78;4960476;28;20082;-79
2022/10/25 09:18:21;;;;;;;53.00;23.50;;;;;;;20.34;62.59;101482.06;4976205;28;20467;-81
2022/10/25 09:20:54;;;;;;;47.85;24.30;;;;;;;20.61;62.16;101521.19;4978535;28;20054;-80
2022/10/25 09:23:39;;;;;;;46.47;24.65;;;;;;;20.73;62.24;101556.66;4974574;28;20137;-78
2022/10/25 09:26:25;;;;;;;43.95;23.08;;;;;;;19.52;61.97;101370.22;4972605;28;20064;-80
2022/10/25 09:29:13;;;;;;;46.05;22.23;;;;;;;20.69;62.23;101551.63;4973405;28;20062;-82
2022/10/25 09:31:47;;;;;;;48.53;23.88;;;;;;;19.64;62.37;101382.25;4974737;28;20055;-80
2022/10/25 09:34:31;;;;;;;48.17;23.45;;;;;;;19.80;62.51;101432.53;4972096;28;20469;-81
2022/10/25 09:37:40;;;;;;;40.47;22.50;;;;;;;20.66;62.74;101572.75;4978561;28;20054;-81
2022/10/25 09:40:23;;;;;;;45.42;23.83;;;;;;;21.15;63.32;101652.53;4975559;28;20364;-81
2022/10/25 09:46:04;;;;;;;44.85;24.77;;;;;;;20.69;65.75;101557.03;4952444;28;20055;-80
2022/10/25 09:48:45;;;;;;;48.47;26.17;;;;;;;20.00;66.54;101464.41;4959398;28;20258;-80
2022/10/25 09:51:33;;;;;;;41.88;24.02;;;;;;;21.07;66.60;101629.13;4979267;28;20054;-80
2022/10/25 09:54:17;;;;;;;48.42;26.33;;;;;;;20.73;66.81;101595.31;4979316;28;20065;-80
2022/10/25 09:57:00;;;;;;;42.72;25.33;;;;;;;21.05;66.98;101632.00;4974650;28;20065;-79
2022/10/25 09:59:29;;;;;;;44.90;25.35;;;;;;;19.95;67.04;101445.25;4974153;28;20050;-78
2022/10/25 10:02:22;;;;;;;46.08;25.52;;;;;;;19.96;67.27;101430.78;4958769;28;20835;-81
2022/10/25 10:04:51;;;;;;;44.30;24.48;;;;;;;19.97;67.32;101437.84;4940156;28;20067;-81
2022/10/25 10:07:41;;;;;;;42.42;25.98;;;;;;;20.11;67.42;101461.31;4946431;28;20054;-81
2022/10/25 10:10:28;;;;;;;46.45;26.65;;;;;;;21.00;67.32;101591.22;4973111;28;20164;-81
2022/10/25 10:13:05;;;;;;;41.22;26.23;;;;;;;21.53;66.90;101662.34;4969978;28;20110;-80
2022/10/25 10:16:01;;;;;;;51.47;26.92;;;;;;;21.03;66.48;101561.16;4955976;28;20061;-79
2022/10/25 10:18:36;;;;;;;52.10;28.08;;;;;;;21.32;65.95;101584.69;4973628;28;20155;-81
2022/10/25 10:21:06;;;;;;;47.72;26.67;;;;;;;22.03;65.52;101673.50;4971595;28;20065;-80
2022/10/25 10:23:53;;;;;;;46.15;26.38;;;;;;;22.19;65.41;101678.72;4970705;28;20143;-81
2022/10/25 10:26:55;;;;;;;51.60;26.50;;;;;;;22.49;64.25;101683.28;4975433;28;20124;-80
2022/10/25 10:29:28;;;;;;;49.70;26.92;;;;;;;22.21;63.05;101592.03;4966498;28;20054;-79
2022/10/25 10:32:28;;;;;;;55.00;26.67;;;;;;;21.49;62.61;101452.19;4955174;28;20399;-82
2022/10/25 10:35:00;;;;;;;48.13;26.15;;;;;;;21.38;62.29;101409.41;4941802;28;20632;-77
2022/10/25 10:37:33;;;;;;;54.22;26.92;;;;;;;23.10;62.04;101664.84;4959191;28;20677;-81
2022/10/25 10:40:25;;;;;;;57.80;26.02;;;;;;;21.61;61.09;101402.06;4961029;28;20050;-79
2022/10/25 10:43:08;;;;;;;;;;;;;;;;;;;;;
2022/10/25 10:45:59;;;;;;;47.88;25.90;;;;;;;22.98;60.31;101579.75;4977833;28;20466;-80
2022/10/25 10:48:40;;;;;;;45.50;26.50;;;;;;;23.52;59.68;101644.19;4979387;28;20204;-79
2022/10/25 10:51:19;;;;;;;42.95;25.13;;;;;;;23.34;59.43;101587.75;4978947;28;20054;-79
2022/10/25 10:54:48;;;;;;;;;;;;;;;;;;;;;
2022/10/25 10:57:34;;;;;;;43.75;21.92;;;;;;;22.50;57.95;101457.69;4978143;28;20820;-77
2022/10/25 11:00:29;;;;;;;39.60;22.33;;;;;;;22.92;58.77;101526.34;4972417;28;20270;-81
2022/10/25 11:03:46;;;;;;;43.45;22.83;;;;;;;23.62;58.92;101630.28;4974200;28;20064;-82
2022/10/25 11:06:38;;;;;;;43.00;23.35;;;;;;;22.14;59.34;101404.50;4978040;28;20056;-82
2022/10/25 11:09:24;;;;;;;34.55;21.42;;;;;;;23.49;59.39;101630.19;4972259;28;20101;-80
2022/10/25 11:12:13;;;;;;;39.67;22.95;;;;;;;21.81;59.61;101372.53;4961744;28;20411;-79
2022/10/25 11:14:56;;;;;;;47.97;24.23;;;;;;;22.93;60.06;101563.22;4971758;28;20288;-78
2022/10/25 11:17:46;;;;;;;35.13;20.90;;;;;;;22.26;59.54;101437.28;4969645;28;20164;-77
2022/10/25 11:21:15;;;;;;;41.28;21.50;;;;;;;23.04;60.00;101589.81;4976042;28;20058;-80
2022/10/25 11:24:02;;;;;;;49.88;24.48;;;;;;;23.24;60.16;101628.72;4943863;29;20392;-79
2022/10/25 11:26:56;;;;;;;38.00;20.95;;;;;;;22.39;60.24;101497.75;4934368;28;20062;-81
2022/10/25 11:30:14;;;;;;;40.78;17.63;;;;;;;22.31;59.99;101503.31;4950552;27;4916983;-79
2022/10/25 11:33:02;;;;;;;37.00;18.63;;;;;;;23.09;60.30;101630.69;5094317;28;20047;-78
2022/10/25 11:35:47;;;;;;;42.05;18.08;;;;;;;21.52;60.83;101371.59;5090953;28;20043;-80
2022/10/25 11:38:32;;;;;;;41.63;19.77;;;;;;;23.09;60.55;101619.84;5094611;28;20052;-80
2022/10/25 11:41:47;;;;;;;39.35;19.95;;;;;;;22.25;60.37;101490.53;5093378;28;20055;-80
2022/10/25 11:44:42;;;;;;;35.55;20.80;;;;;;;22.77;60.59;101580.59;5003041;28;20061;-78
2022/10/25 11:47:26;;;;;;;42.78;18.50;;;;;;;23.11;60.67;101623.22;5073113;28;20052;-80
2022/10/25 11:50:13;;;;;;;46.58;19.45;;;;;;;22.77;60.25;101562.47;5072636;28;20064;-78
2022/10/25 11:53:01;;;;;;;44.40;19.13;;;;;;;23.09;60.30;101603.59;5078657;28;20418;-80
2022/10/25 11:56:17;;;;;;;43.63;20.45;;;;;;;23.09;60.50;101602.78;5084845;28;20052;-80
2022/10/25 11:59:24;;;;;;;37.28;17.67;;;;;;;23.12;61.15;101607.78;5089638;28;20197;-78
2022/10/25 12:02:38;;;;;;;33.22;18.35;;;;;;;22.99;60.81;101587.69;5079906;28;20060;-79
2022/10/25 12:05:24;;;;;;;38.28;17.08;;;;;;;23.13;61.20;101585.94;5076550;28;20067;-78
2022/10/25 12:08:27;;;;;;;38.90;16.95;;;;;;;23.10;61.29;101582.78;5076832;28;20414;-77
2022/10/25 12:11:07;;;;;;;35.47;16.02;;;;;;;21.73;61.21;101360.00;5073802;28;20040;-79
2022/10/25 12:13:59;;;;;;;34.80;16.52;;;;;;;23.12;61.30;101570.72;5094401;28;20040;-77
2022/10/25 12:16:44;;;;;;;28.60;15.25;;;;;;;22.96;60.33;101541.16;5103617;28;20146;-80
2022/10/25 12:19:26;;;;;;;36.38;15.60;;;;;;;22.45;60.16;101433.09;5099735;28;20052;-79
2022/10/25 12:22:06;;;;;;;30.08;14.45;;;;;;;21.84;60.02;101341.59;5099490;28;20040;-81
2022/10/25 12:25:07;;;;;;;28.48;14.88;;;;;;;22.50;60.06;101460.41;5099897;28;20504;-78
2022/10/25 12:27:49;;;;;;;29.58;14.85;;;;;;;22.92;60.51;101518.25;5099066;28;20051;-77